Time;durP1;ratioP1;P1;durP2;ratioP2;P2;SDS_P1;SDS_P2;PMS_P1;PMS_P2;Temp;Humidity;BMP_temperature;BMP_pressure;BME280_temperature;BME280_humidity;BME280_pressure;Samples;Min_cycle;Max_cycle;Signal;HPM_P1;HPM_P2
2022/05/17 00:01:41;;;;;;;18.30;5.88;;;15.70;99.90;;;;;;5048457;28;20045;-82
2022/05/17 00:04:07;;;;;;;18.83;6.75;;;15.70;99.90;;;;;;5045602;28;20047;-83
2022/05/17 00:06:33;;;;;;;20.30;6.35;;;15.70;99.90;;;;;;5047643;28;20032;-82
2022/05/17 00:08:58;;;;;;;17.58;6.65;;;15.70;99.90;;;;;;5050343;28;20040;-82
2022/05/17 00:11:25;;;;;;;19.42;6.85;;;15.70;99.90;;;;;;5048975;28;20076;-82
2022/05/17 00:13:50;;;;;;;16.85;6.43;;;15.60;99.90;;;;;;5048126;28;20060;-82
2022/05/17 00:16:16;;;;;;;18.25;6.95;;;15.60;99.90;;;;;;5047488;28;20072;-82
2022/05/17 00:18:42;;;;;;;16.23;7.30;;;15.60;99.90;;;;;;5048541;28;20037;-82
2022/05/17 00:21:08;;;;;;;17.92;7.47;;;15.50;99.90;;;;;;5047758;28;20489;-81
2022/05/17 00:23:36;;;;;;;20.60;7.03;;;15.50;99.90;;;;;;5048045;28;20064;-83
2022/05/17 00:26:04;;;;;;;17.55;7.38;;;15.40;99.90;;;;;;5061111;28;20064;-83
2022/05/17 00:28:30;;;;;;;15.18;7.53;;;15.40;99.90;;;;;;5049004;28;20036;-82
2022/05/17 00:30:55;;;;;;;19.52;7.90;;;15.40;99.90;;;;;;5047590;28;20033;-82
2022/05/17 00:33:21;;;;;;;17.85;7.53;;;15.30;99.90;;;;;;5048693;28;20411;-81
2022/05/17 00:35:47;;;;;;;19.60;7.82;;;15.30;99.90;;;;;;5047500;28;20037;-81
2022/05/17 00:38:14;;;;;;;18.55;7.68;;;15.30;99.90;;;;;;5047998;28;20053;-83
2022/05/17 00:40:40;;;;;;;21.05;7.82;;;15.20;99.90;;;;;;5062693;28;20135;-81
2022/05/17 00:43:13;;;;;;;21.90;7.35;;;15.20;99.90;;;;;;5047864;28;20036;-80
2022/05/17 00:45:45;;;;;;;18.45;8.18;;;15.20;99.90;;;;;;5044975;28;20048;-82
2022/05/17 00:48:11;;;;;;;17.23;8.38;;;15.20;99.90;;;;;;5047929;28;20035;-81
2022/05/17 00:50:47;;;;;;;22.63;8.07;;;15.20;99.90;;;;;;5030583;28;20642;-81
2022/05/17 00:53:24;;;;;;;17.70;7.22;;;15.20;99.90;;;;;;5047756;28;20140;-81
2022/05/17 00:56:02;;;;;;;17.35;6.78;;;15.10;99.90;;;;;;5061668;28;20040;-82
2022/05/17 00:58:35;;;;;;;19.15;8.55;;;15.10;99.90;;;;;;5047232;28;20625;-82
2022/05/17 01:01:06;;;;;;;20.17;7.93;;;15.10;99.90;;;;;;5047176;28;20061;-82
2022/05/17 01:03:53;;;;;;;18.23;8.02;;;15.10;99.90;;;;;;5047999;28;20032;-82
2022/05/17 01:06:20;;;;;;;23.67;8.52;;;15.10;99.90;;;;;;5046878;28;20046;-81
2022/05/17 01:08:46;;;;;;;16.90;7.65;;;15.00;99.90;;;;;;5062220;28;20037;-82
2022/05/17 01:11:12;;;;;;;22.13;8.48;;;15.00;99.90;;;;;;5028592;28;20044;-83
2022/05/17 01:16:24;;;;;;;19.85;8.02;;;15.00;99.90;;;;;;5048230;28;20159;-82
2022/05/17 01:18:50;;;;;;;23.00;8.25;;;15.00;99.90;;;;;;5048072;28;20033;-81
2022/05/17 01:21:15;;;;;;;20.27;8.65;;;14.90;99.90;;;;;;5046733;28;20246;-82
2022/05/17 01:23:41;;;;;;;21.17;9.00;;;14.90;99.90;;;;;;5047429;28;20060;-81
2022/05/17 01:26:15;;;;;;;20.45;8.18;;;14.90;99.90;;;;;;5029724;28;20033;-82
2022/05/17 01:28:41;;;;;;;19.85;7.55;;;14.90;99.90;;;;;;5047508;28;20033;-81
2022/05/17 01:31:07;;;;;;;18.60;7.82;;;14.80;99.90;;;;;;5046895;28;20029;-82
2022/05/17 01:33:35;;;;;;;17.13;7.95;;;14.80;99.90;;;;;;5046636;28;20049;-83
2022/05/17 01:36:02;;;;;;;17.60;7.47;;;14.80;99.90;;;;;;5042623;28;20032;-81
2022/05/17 01:38:29;;;;;;;18.08;7.90;;;14.80;99.90;;;;;;5029693;28;20041;-81
2022/05/17 01:40:54;;;;;;;15.38;6.72;;;14.80;99.90;;;;;;5047187;28;20033;-82
2022/05/17 01:43:20;;;;;;;19.30;7.13;;;14.80;99.90;;;;;;5046697;28;20056;-82
2022/05/17 01:45:46;;;;;;;18.20;7.20;;;14.80;99.90;;;;;;5045721;28;20483;-81
2022/05/17 01:48:11;;;;;;;19.63;7.47;;;14.80;99.90;;;;;;5029125;28;20491;-81
2022/05/17 01:50:37;;;;;;;16.70;7.03;;;14.80;99.90;;;;;;5028727;28;20092;-81
2022/05/17 01:53:03;;;;;;;19.85;7.40;;;14.80;99.90;;;;;;5046646;28;20513;-81
2022/05/17 01:55:30;;;;;;;23.77;8.02;;;14.80;99.90;;;;;;5045724;28;20041;-84
2022/05/17 01:57:55;;;;;;;19.55;8.00;;;14.70;99.90;;;;;;5048226;28;20053;-81
2022/05/17 02:00:23;;;;;;;19.23;7.57;;;14.70;99.90;;;;;;5030302;28;20041;-80
2022/05/17 02:02:50;;;;;;;21.20;8.15;;;14.70;99.90;;;;;;5045679;28;20041;-82
2022/05/17 02:05:20;;;;;;;17.67;7.72;;;14.70;99.90;;;;;;5045500;28;20534;-81
2022/05/17 02:07:46;;;;;;;15.32;7.75;;;14.70;99.90;;;;;;5044650;28;20460;-81
2022/05/17 02:10:12;;;;;;;18.90;7.30;;;14.60;99.90;;;;;;5045280;28;20041;-81
2022/05/17 02:12:38;;;;;;;17.48;7.28;;;14.60;99.90;;;;;;5029509;28;20049;-81
2022/05/17 02:15:05;;;;;;;21.60;7.82;;;14.60;99.90;;;;;;5030185;28;20574;-81
2022/05/17 02:17:31;;;;;;;20.77;7.43;;;14.50;99.90;;;;;;5047358;28;20059;-81
2022/05/17 02:19:58;;;;;;;16.60;7.07;;;14.50;99.90;;;;;;5046230;28;20036;-81
2022/05/17 02:22:24;;;;;;;18.00;8.27;;;14.50;99.90;;;;;;5043002;28;20056;-82
2022/05/17 02:24:49;;;;;;;15.48;6.97;;;14.50;99.90;;;;;;5044502;28;20041;-82
2022/05/17 02:27:15;;;;;;;20.55;8.02;;;14.50;99.90;;;;;;5045920;28;20041;-81
2022/05/17 02:29:40;;;;;;;16.75;7.20;;;14.50;99.90;;;;;;5062492;28;20037;-82
2022/05/17 02:32:06;;;;;;;17.35;7.30;;;14.50;99.90;;;;;;5045326;28;20028;-82
2022/05/17 02:34:32;;;;;;;18.77;7.10;;;14.40;99.90;;;;;;5044872;28;20549;-80
2022/05/17 02:36:58;;;;;;;18.73;7.10;;;14.40;99.90;;;;;;5046166;28;20057;-83
2022/05/17 02:39:23;;;;;;;16.33;7.43;;;14.40;99.90;;;;;;5047817;28;20094;-82
2022/05/17 02:41:49;;;;;;;17.15;7.20;;;14.40;99.90;;;;;;5048422;28;20033;-81
2022/05/17 02:44:14;;;;;;;21.25;7.47;;;14.30;99.90;;;;;;5048596;28;20048;-80
2022/05/17 02:46:40;;;;;;;15.98;6.95;;;14.30;99.90;;;;;;5032921;28;20116;-80
2022/05/17 02:49:07;;;;;;;15.43;7.15;;;14.30;99.90;;;;;;5049596;28;20160;-80
2022/05/17 02:51:34;;;;;;;23.67;7.95;;;14.30;99.90;;;;;;5049348;28;20037;-81
2022/05/17 02:54:00;;;;;;;15.20;7.10;;;14.30;99.90;;;;;;5049604;28;20029;-81
2022/05/17 02:56:26;;;;;;;18.15;7.35;;;14.20;99.90;;;;;;5049041;28;20468;-80
2022/05/17 02:58:51;;;;;;;16.55;7.20;;;14.20;99.90;;;;;;5046774;28;20064;-80
2022/05/17 03:01:17;;;;;;;15.85;6.68;;;14.20;99.90;;;;;;5049711;28;20071;-82
2022/05/17 03:03:43;;;;;;;14.55;6.65;;;14.20;99.90;;;;;;5049857;28;20036;-80
2022/05/17 03:06:10;;;;;;;18.20;6.90;;;14.20;99.90;;;;;;5049628;28;20040;-81
2022/05/17 03:08:36;;;;;;;17.88;7.30;;;14.20;99.90;;;;;;5049774;28;20573;-81
2022/05/17 03:11:03;;;;;;;18.85;6.78;;;14.10;99.90;;;;;;5048086;28;20045;-81
2022/05/17 03:13:28;;;;;;;15.55;7.00;;;14.10;99.90;;;;;;5047625;28;20037;-80
2022/05/17 03:15:54;;;;;;;13.73;6.63;;;14.10;99.90;;;;;;5049104;28;20389;-80
2022/05/17 03:18:20;;;;;;;18.55;6.53;;;14.10;99.90;;;;;;5065186;28;20041;-80
2022/05/17 03:20:48;;;;;;;13.65;6.50;;;14.10;99.90;;;;;;5046902;28;20094;-81
2022/05/17 03:23:13;;;;;;;15.85;6.85;;;14.00;99.90;;;;;;5048340;28;20728;-80
2022/05/17 03:25:39;;;;;;;17.27;6.93;;;14.00;99.90;;;;;;5045765;28;20052;-80
2022/05/17 03:28:05;;;;;;;14.30;6.68;;;14.00;99.90;;;;;;5049357;28;20081;-80
2022/05/17 03:30:32;;;;;;;19.05;7.30;;;13.90;99.90;;;;;;5044589;28;20045;-80
2022/05/17 03:32:57;;;;;;;15.60;7.03;;;13.90;99.90;;;;;;5049080;28;20056;-81
2022/05/17 03:35:23;;;;;;;18.20;7.10;;;13.90;99.90;;;;;;5030846;28;20036;-80
2022/05/17 03:37:49;;;;;;;15.05;7.20;;;13.90;99.90;;;;;;5047411;28;20068;-80
2022/05/17 03:40:14;;;;;;;13.25;7.35;;;13.90;99.90;;;;;;5048388;28;20068;-81
2022/05/17 03:42:41;;;;;;;16.70;7.22;;;13.90;99.90;;;;;;5065115;28;20037;-81
2022/05/17 03:45:07;;;;;;;16.67;6.82;;;13.90;99.90;;;;;;5047325;28;20696;-80
2022/05/17 03:47:33;;;;;;;15.20;6.78;;;13.90;99.90;;;;;;5045845;28;20175;-81
2022/05/17 03:49:59;;;;;;;15.60;7.53;;;13.90;99.90;;;;;;5047662;28;20136;-81
2022/05/17 03:52:26;;;;;;;14.52;7.28;;;13.90;99.90;;;;;;5047125;28;20051;-81
2022/05/17 03:54:56;;;;;;;16.15;7.47;;;13.90;99.90;;;;;;5047782;28;20049;-81
2022/05/17 03:57:22;;;;;;;17.15;7.10;;;13.90;99.90;;;;;;5060295;28;20041;-81
2022/05/17 03:59:48;;;;;;;11.82;6.63;;;13.90;99.90;;;;;;5034098;28;20036;-81
2022/05/17 04:02:14;;;;;;;15.88;7.10;;;14.00;99.90;;;;;;5048242;28;20101;-81
2022/05/17 04:04:40;;;;;;;17.73;6.95;;;14.00;99.90;;;;;;5047560;28;20048;-81
2022/05/17 04:07:06;;;;;;;19.85;7.25;;;14.00;99.90;;;;;;5048024;28;20089;-80
2022/05/17 04:09:32;;;;;;;16.67;7.57;;;14.10;99.90;;;;;;5048135;28;20060;-81
2022/05/17 04:11:57;;;;;;;14.10;7.35;;;14.20;99.90;;;;;;5044538;28;20396;-80
2022/05/17 04:14:23;;;;;;;17.90;7.22;;;14.20;99.90;;;;;;5047169;28;20044;-80
2022/05/17 04:16:50;;;;;;;17.15;7.72;;;14.30;99.90;;;;;;5047836;28;20041;-81
2022/05/17 04:19:15;;;;;;;15.30;7.28;;;14.40;99.90;;;;;;5048005;28;20049;-81
2022/05/17 04:21:42;;;;;;;14.90;7.47;;;14.40;99.90;;;;;;5046289;28;20095;-81
2022/05/17 04:24:08;;;;;;;18.90;7.40;;;14.50;99.90;;;;;;5047637;28;20441;-80
2022/05/17 04:26:33;;;;;;;18.08;7.18;;;14.60;99.90;;;;;;5048426;28;20037;-81
2022/05/17 04:28:59;;;;;;;20.25;8.05;;;14.70;99.90;;;;;;5046785;28;20475;-81
2022/05/17 04:31:25;;;;;;;19.83;7.57;;;14.70;99.90;;;;;;5047443;28;20465;-81
2022/05/17 04:33:51;;;;;;;15.77;6.90;;;14.80;99.90;;;;;;5047689;28;20399;-80
2022/05/17 04:36:16;;;;;;;15.05;7.28;;;14.90;99.90;;;;;;5047813;28;20159;-81
2022/05/17 04:38:42;;;;;;;14.57;7.30;;;15.00;99.90;;;;;;5029215;28;20108;-82
2022/05/17 04:41:07;;;;;;;20.15;8.00;;;15.10;99.90;;;;;;5044127;28;20029;-81
2022/05/17 04:43:33;;;;;;;14.98;7.10;;;15.20;99.90;;;;;;5048082;28;20102;-81
2022/05/17 04:45:58;;;;;;;18.15;7.22;;;15.30;99.90;;;;;;5049784;28;20495;-80
2022/05/17 04:48:24;;;;;;;19.15;7.45;;;15.30;99.90;;;;;;5052909;28;20040;-80
2022/05/17 04:50:53;;;;;;;16.52;7.22;;;15.40;99.90;;;;;;5053018;28;20124;-80
2022/05/17 04:53:19;;;;;;;16.55;6.95;;;15.40;99.90;;;;;;5036397;28;20068;-81
2022/05/17 04:55:45;;;;;;;16.80;6.93;;;15.50;99.90;;;;;;5035608;28;20066;-81
2022/05/17 04:58:11;;;;;;;14.65;6.55;;;15.50;99.90;;;;;;5050892;28;20410;-81
2022/05/17 05:00:37;;;;;;;15.27;6.65;;;15.60;99.90;;;;;;5051270;28;20064;-82
2022/05/17 05:03:02;;;;;;;18.35;7.55;;;15.50;99.90;;;;;;5052544;28;20569;-80
2022/05/17 05:05:28;;;;;;;18.15;6.68;;;15.50;99.90;;;;;;5049548;28;20079;-81
2022/05/17 05:07:54;;;;;;;15.52;6.57;;;15.40;99.90;;;;;;5050656;28;20037;-81
2022/05/17 05:10:20;;;;;;;16.67;7.20;;;15.30;99.90;;;;;;5046707;28;20039;-82
2022/05/17 05:12:46;;;;;;;14.75;6.68;;;15.30;99.90;;;;;;5046948;28;20564;-80
2022/05/17 05:15:12;;;;;;;17.42;7.50;;;15.20;99.90;;;;;;5048181;28;20048;-80
2022/05/17 05:17:38;;;;;;;15.88;6.68;;;15.20;99.90;;;;;;5031811;28;20498;-81
2022/05/17 05:20:07;;;;;;;14.07;7.10;;;15.20;99.90;;;;;;5047296;28;20039;-80
2022/05/17 05:22:34;;;;;;;17.20;6.53;;;15.30;99.90;;;;;;5045909;28;20144;-81
2022/05/17 05:25:00;;;;;;;18.42;7.13;;;15.40;99.90;;;;;;5047289;28;20491;-81
2022/05/17 05:27:31;;;;;;;16.40;7.05;;;15.40;99.90;;;;;;5046223;28;20561;-81
2022/05/17 05:29:57;;;;;;;16.48;6.82;;;15.40;99.90;;;;;;5047654;28;20063;-80
2022/05/17 05:32:22;;;;;;;16.38;7.20;;;15.50;99.90;;;;;;5044699;28;20037;-80
2022/05/17 05:34:48;;;;;;;18.65;6.80;;;15.50;99.90;;;;;;5045960;28;20037;-81
2022/05/17 05:37:13;;;;;;;16.77;6.70;;;15.50;99.90;;;;;;5028343;28;20126;-80
2022/05/17 05:39:39;;;;;;;15.93;7.28;;;15.60;99.90;;;;;;5047411;28;20075;-80
2022/05/17 05:42:05;;;;;;;15.65;7.07;;;15.70;99.90;;;;;;5046219;28;20045;-80
2022/05/17 05:44:35;;;;;;;17.52;6.68;;;15.90;99.90;;;;;;5045149;28;20419;-81
2022/05/17 05:47:00;;;;;;;15.43;6.57;;;16.00;99.90;;;;;;5045828;28;20127;-81
2022/05/17 05:49:26;;;;;;;16.92;6.55;;;16.10;99.90;;;;;;5049282;28;20204;-81
2022/05/17 05:51:52;;;;;;;16.42;6.43;;;16.30;99.90;;;;;;5030745;28;20049;-81
2022/05/17 05:54:17;;;;;;;16.67;7.03;;;16.50;99.90;;;;;;5047397;28;20040;-81
2022/05/17 05:56:43;;;;;;;20.42;6.55;;;16.60;99.90;;;;;;5029611;28;20059;-81
2022/05/17 05:59:09;;;;;;;19.08;6.90;;;16.80;99.90;;;;;;5049036;28;20137;-81
2022/05/17 06:01:35;;;;;;;15.70;6.45;;;16.80;99.90;;;;;;5049894;28;20040;-80
2022/05/17 06:04:01;;;;;;;16.60;5.88;;;16.80;99.90;;;;;;5048312;28;20037;-80
2022/05/17 06:06:27;;;;;;;15.90;5.82;;;16.80;99.90;;;;;;5047016;28;20049;-80
2022/05/17 06:08:53;;;;;;;13.95;5.30;;;16.80;99.90;;;;;;5030998;28;20115;-81
2022/05/17 06:11:19;;;;;;;14.07;6.07;;;16.90;99.90;;;;;;5046923;28;20037;-81
2022/05/17 06:13:44;;;;;;;15.15;5.57;;;16.90;99.90;;;;;;5045453;28;20097;-82
2022/05/17 06:16:10;;;;;;;15.90;5.88;;;16.90;99.90;;;;;;5043984;28;20044;-82
2022/05/17 06:18:35;;;;;;;18.45;5.97;;;17.10;99.90;;;;;;5047499;28;20562;-81
2022/05/17 06:21:02;;;;;;;15.70;5.57;;;17.10;99.90;;;;;;5046171;28;20037;-81
2022/05/17 06:23:28;;;;;;;15.75;5.50;;;17.10;99.90;;;;;;5031020;28;20044;-82
2022/05/17 06:25:54;;;;;;;18.95;6.20;;;17.30;99.90;;;;;;5043387;28;20033;-82
2022/05/17 06:28:19;;;;;;;12.68;5.35;;;17.40;99.90;;;;;;5029237;28;20048;-82
2022/05/17 06:30:45;;;;;;;16.05;6.35;;;17.40;99.90;;;;;;5031181;28;20520;-83
2022/05/17 06:33:12;;;;;;;17.30;6.45;;;17.50;99.90;;;;;;5047629;28;20526;-81
2022/05/17 06:35:43;;;;;;;13.48;5.57;;;17.40;99.90;;;;;;5047275;28;20140;-81
2022/05/17 06:38:09;;;;;;;15.95;5.90;;;17.40;99.90;;;;;;5031346;28;20060;-82
2022/05/17 06:40:36;;;;;;;14.68;5.70;;;17.40;99.90;;;;;;5054259;28;20053;-81
2022/05/17 06:43:01;;;;;;;19.08;5.88;;;17.40;99.90;;;;;;5051800;28;20453;-82
2022/05/17 06:45:27;;;;;;;17.88;5.75;;;17.50;99.90;;;;;;5051699;28;20036;-81
2022/05/17 06:47:52;;;;;;;16.25;5.65;;;17.50;99.90;;;;;;5051739;28;20071;-82
2022/05/17 06:50:18;;;;;;;14.98;5.55;;;17.50;99.90;;;;;;5034785;28;20500;-81
2022/05/17 06:52:44;;;;;;;17.38;5.28;;;17.60;99.90;;;;;;5036213;28;20036;-82
2022/05/17 06:55:11;;;;;;;15.50;5.78;;;17.70;99.90;;;;;;5052918;28;20111;-82
2022/05/17 06:57:40;;;;;;;17.65;5.13;;;17.80;99.90;;;;;;5052833;28;20085;-81
2022/05/17 07:00:08;;;;;;;16.10;5.55;;;17.90;99.90;;;;;;5051897;28;20098;-81
2022/05/17 07:02:34;;;;;;;19.02;5.47;;;18.10;99.90;;;;;;5050393;28;20036;-81
2022/05/17 07:04:59;;;;;;;17.45;5.07;;;18.20;99.90;;;;;;5048855;28;20098;-81
2022/05/17 07:07:26;;;;;;;14.95;5.10;;;18.30;99.90;;;;;;5048540;28;20052;-82
2022/05/17 07:15:20;;;;;;;17.05;5.53;;;18.70;99.90;;;;;;5029174;28;20514;-82
2022/05/17 07:17:45;;;;;;;13.65;4.75;;;18.90;99.90;;;;;;5029479;28;20049;-82
2022/05/17 07:20:11;;;;;;;14.20;5.72;;;18.90;99.90;;;;;;5031242;28;20045;-82
2022/05/17 07:22:37;;;;;;;10.75;5.20;;;18.90;99.90;;;;;;5031178;28;20141;-81
2022/05/17 07:25:03;;;;;;;16.05;5.15;;;19.00;99.90;;;;;;5034649;28;20046;-83
2022/05/17 07:27:29;;;;;;;16.13;5.22;;;19.10;99.90;;;;;;5035504;28;20392;-81
2022/05/17 07:29:54;;;;;;;15.30;5.25;;;19.20;99.90;;;;;;5036258;28;20040;-81
2022/05/17 07:32:20;;;;;;;12.88;4.97;;;19.30;99.90;;;;;;5056053;28;20033;-81
2022/05/17 07:34:47;;;;;;;13.27;4.50;;;19.40;99.90;;;;;;5053555;28;20037;-81
2022/05/17 07:37:13;;;;;;;15.93;4.60;;;19.40;99.90;;;;;;5032288;28;20491;-82
2022/05/17 07:39:39;;;;;;;17.02;4.82;;;19.40;99.90;;;;;;5052018;28;20051;-82
2022/05/17 07:42:06;;;;;;;14.20;4.97;;;19.40;99.90;;;;;;5048116;28;20051;-82
2022/05/17 07:44:33;;;;;;;16.85;4.57;;;19.40;99.90;;;;;;5037063;28;20473;-82
2022/05/17 07:46:59;;;;;;;13.55;4.50;;;19.60;99.90;;;;;;5052616;28;20072;-82
2022/05/17 07:49:24;;;;;;;15.57;4.63;;;19.70;99.90;;;;;;5054923;28;20056;-82
2022/05/17 07:51:50;;;;;;;17.63;5.28;;;19.90;99.90;;;;;;5039338;28;20034;-82
2022/05/17 07:54:15;;;;;;;15.75;5.10;;;20.00;99.90;;;;;;5054421;28;20033;-82
2022/05/17 07:56:41;;;;;;;14.05;4.15;;;20.20;99.90;;;;;;5049965;28;20395;-83
2022/05/17 07:59:06;;;;;;;12.93;4.60;;;20.20;99.90;;;;;;5046978;28;20552;-81
2022/05/17 08:01:32;;;;;;;13.35;4.20;;;20.40;99.90;;;;;;5051274;28;20051;-81
2022/05/17 08:03:58;;;;;;;12.85;4.18;;;20.50;99.90;;;;;;5039373;28;20503;-82
2022/05/17 08:06:24;;;;;;;14.60;4.32;;;20.50;99.90;;;;;;5017848;28;20041;-82
2022/05/17 08:08:49;;;;;;;13.90;4.55;;;20.40;99.90;;;;;;5045073;28;20029;-82
2022/05/17 08:11:15;;;;;;;13.23;4.63;;;20.30;99.90;;;;;;5036373;28;20494;-81
2022/05/17 08:13:41;;;;;;;14.40;4.32;;;20.30;99.90;;;;;;5035450;28;20080;-83
2022/05/17 08:16:06;;;;;;;14.05;4.75;;;20.30;99.90;;;;;;5062615;28;20483;-82
2022/05/17 08:18:32;;;;;;;14.60;4.93;;;20.40;99.90;;;;;;5050882;28;20041;-83
2022/05/17 08:20:57;;;;;;;13.18;4.22;;;20.40;99.90;;;;;;5052491;28;20044;-82
2022/05/17 08:23:23;;;;;;;13.23;4.75;;;20.40;99.90;;;;;;5051914;28;20041;-84
2022/05/17 08:28:32;;;;;;;;;;;20.40;99.90;;;;;;5053932;28;20060;-83
2022/05/17 08:30:58;;;;;;;14.00;4.82;;;20.30;99.90;;;;;;5035510;28;19916;-83
2022/05/17 08:33:26;;;;;;;15.82;4.45;;;20.50;99.90;;;;;;5052101;28;20037;-84
2022/05/17 08:35:52;;;;;;;13.63;4.38;;;20.30;99.90;;;;;;5050510;28;20411;-84
2022/05/17 08:38:45;;;;;;;11.82;3.92;;;20.40;99.90;;;;;;5052289;28;20136;-82
2022/05/17 08:41:46;;;;;;;12.32;3.95;;;20.50;99.90;;;;;;5049118;28;20040;-83
2022/05/17 08:44:14;;;;;;;13.38;4.60;;;20.40;99.90;;;;;;5046672;28;20076;-84
2022/05/17 08:47:11;;;;;;;15.40;4.85;;;20.40;99.90;;;;;;5051560;28;20115;-85
2022/05/17 08:50:01;;;;;;;13.43;4.28;;;20.30;99.90;;;;;;5051678;28;20045;-84
2022/05/17 08:52:28;;;;;;;11.32;4.35;;;20.20;99.90;;;;;;5034973;28;20041;-83
2022/05/17 08:55:14;;;;;;;15.35;5.63;;;20.40;99.90;;;;;;5033683;28;20033;-83
2022/05/17 08:58:07;;;;;;;14.27;4.13;;;20.50;99.90;;;;;;5049063;28;20044;-84
2022/05/17 09:00:43;;;;;;;12.95;3.47;;;20.60;99.90;;;;;;5032946;28;20086;-84
2022/05/17 09:03:29;;;;;;;9.88;3.45;;;20.80;99.90;;;;;;5034753;28;20491;-86
2022/05/17 09:06:01;;;;;;;12.15;3.60;;;20.80;99.90;;;;;;5034209;28;20071;-84
2022/05/17 09:08:42;;;;;;;11.30;3.50;;;20.80;99.90;;;;;;5034655;28;20041;-85
2022/05/17 09:11:21;;;;;;;11.00;3.22;;;20.80;99.90;;;;;;5034942;28;20490;-84
2022/05/17 09:14:01;;;;;;;13.23;3.80;;;20.80;99.90;;;;;;5050658;28;20033;-84
2022/05/17 09:16:38;;;;;;;10.95;3.60;;;20.80;99.90;;;;;;5034688;28;20033;-84
2022/05/17 09:19:04;;;;;;;12.35;4.40;;;20.80;99.90;;;;;;5051133;28;20070;-84
2022/05/17 09:21:36;;;;;;;10.88;3.80;;;20.80;99.90;;;;;;5051180;28;20128;-86
2022/05/17 09:24:10;;;;;;;11.32;3.83;;;20.90;99.90;;;;;;5034077;28;20064;-86
2022/05/17 09:26:37;;;;;;;10.65;2.67;;;21.00;99.90;;;;;;5050980;28;20102;-87
2022/05/17 09:29:25;;;;;;;8.50;2.70;;;21.30;99.90;;;;;;5051339;28;20109;-82
2022/05/17 09:31:59;;;;;;;10.05;2.85;;;21.40;99.90;;;;;;5051000;28;20090;-85
2022/05/17 09:34:37;;;;;;;9.73;3.35;;;21.60;99.90;;;;;;5050671;28;20044;-84
2022/05/17 09:37:10;;;;;;;14.40;3.47;;;21.40;99.90;;;;;;5050907;28;20047;-85
2022/05/17 09:39:36;;;;;;;11.70;3.30;;;21.50;99.90;;;;;;5034497;28;20098;-87
2022/05/17 09:42:05;;;;;;;8.25;2.35;;;21.50;99.90;;;;;;5046180;28;23864;-86
2022/05/17 09:44:33;;;;;;;13.60;3.20;;;21.50;99.90;;;;;;5046680;28;20120;-85
2022/05/17 09:47:03;;;;;;;9.48;3.50;;;21.50;99.90;;;;;;5049760;28;20122;-85
2022/05/17 09:52:32;;;;;;;10.57;2.70;;;21.40;99.90;;;;;;5047221;28;20052;-84
2022/05/17 09:55:13;;;;;;;10.57;2.50;;;21.60;99.90;;;;;;5049272;28;20065;-84
2022/05/17 09:57:51;;;;;;;10.27;3.05;;;21.40;99.90;;;;;;5049966;28;20060;-86
2022/05/17 10:00:25;;;;;;;11.00;2.70;;;21.30;99.90;;;;;;5050275;28;20045;-85
2022/05/17 10:03:00;;;;;;;10.70;2.70;;;21.50;99.90;;;;;;5063329;28;20557;-85
2022/05/17 10:05:38;;;;;;;7.45;2.80;;;21.60;99.90;;;;;;5049721;28;20090;-85
2022/05/17 10:08:36;;;;;;;7.22;2.55;;;21.60;99.90;;;;;;5050022;28;20044;-84
2022/05/17 10:11:13;;;;;;;10.20;2.58;;;21.50;99.90;;;;;;5043053;28;20119;-84
2022/05/17 10:13:58;;;;;;;8.48;2.60;;;21.60;99.90;;;;;;5031866;28;20079;-84
2022/05/17 10:16:39;;;;;;;10.13;2.83;;;21.70;99.90;;;;;;5028310;28;20052;-84
2022/05/17 10:19:26;;;;;;;10.02;2.88;;;21.70;99.90;;;;;;5032930;28;20051;-85
2022/05/17 10:21:55;;;;;;;7.15;2.78;;;21.90;99.90;;;;;;5032711;28;20124;-83
2022/05/17 10:24:53;;;;;;;10.57;2.80;;;22.10;99.90;;;;;;5030132;28;20055;-86
2022/05/17 10:27:29;;;;;;;9.57;3.17;;;22.10;99.90;;;;;;5012466;28;20099;-88
2022/05/17 10:30:05;;;;;;;9.10;2.55;;;22.20;99.90;;;;;;5032680;28;20043;-84
2022/05/17 10:32:35;;;;;;;9.77;2.33;;;22.40;99.90;;;;;;5025860;28;20556;-84
2022/05/17 10:35:17;;;;;;;9.25;2.38;;;22.60;99.90;;;;;;5033652;28;20132;-85
2022/05/17 10:38:08;;;;;;;6.88;1.98;;;22.80;99.90;;;;;;5049609;28;20041;-84
2022/05/17 10:40:43;;;;;;;8.32;1.90;;;22.90;99.90;;;;;;5054356;28;20040;-84
2022/05/17 10:43:29;;;;;;;9.73;2.00;;;23.00;99.90;;;;;;5041598;28;20570;-84
2022/05/17 10:46:04;;;;;;;8.25;2.33;;;23.30;99.90;;;;;;5048497;28;20057;-82
2022/05/17 10:48:48;;;;;;;8.18;2.08;;;23.40;99.90;;;;;;5026634;28;20041;-83
2022/05/17 10:51:33;;;;;;;6.93;2.60;;;23.60;99.90;;;;;;5061915;28;20033;-84
2022/05/17 10:53:58;;;;;;;7.53;2.15;;;23.60;99.90;;;;;;5030356;28;20125;-84
2022/05/17 10:56:49;;;;;;;8.52;2.10;;;23.60;99.90;;;;;;5048624;28;20049;-86
2022/05/17 10:59:38;;;;;;;11.35;1.95;;;23.60;99.90;;;;;;5044918;28;20042;-83
2022/05/17 11:02:30;;;;;;;8.48;1.83;;;23.50;99.90;;;;;;5049676;28;20079;-84
2022/05/17 11:05:22;;;;;;;6.60;1.83;;;23.50;99.90;;;;;;5053246;28;20094;-82
2022/05/17 11:07:58;;;;;;;8.15;1.67;;;23.50;99.90;;;;;;5036326;28;20425;-84
2022/05/17 11:10:42;;;;;;;8.20;2.63;;;23.40;99.30;;;;;;5049941;28;20033;-83
2022/05/17 11:13:33;;;;;;;7.72;2.05;;;23.50;99.90;;;;;;5036112;28;20087;-84
2022/05/17 11:16:08;;;;;;;7.40;2.10;;;23.60;99.70;;;;;;5051786;28;20029;-83
2022/05/17 11:18:43;;;;;;;8.20;2.20;;;23.70;99.30;;;;;;5051165;28;20040;-83
2022/05/17 11:21:27;;;;;;;7.70;1.90;;;23.70;99.20;;;;;;5052245;28;20040;-84
2022/05/17 11:24:14;;;;;;;6.85;1.90;;;24.00;99.90;;;;;;5046567;28;20040;-83
2022/05/17 11:26:45;;;;;;;5.55;1.70;;;24.10;98.40;;;;;;5036770;28;20049;-83
2022/05/17 11:29:31;;;;;;;8.13;2.03;;;24.10;98.90;;;;;;5054509;28;20049;-82
2022/05/17 11:32:14;;;;;;;6.90;1.80;;;24.30;98.40;;;;;;5048776;28;20033;-84
2022/05/17 11:34:43;;;;;;;5.22;1.83;;;24.40;95.70;;;;;;5033216;28;20047;-82
2022/05/17 11:37:32;;;;;;;9.30;2.10;;;24.50;96.70;;;;;;5053771;28;20033;-83
2022/05/17 11:40:00;;;;;;;6.90;1.75;;;24.60;95.30;;;;;;5021947;28;20037;-82
2022/05/17 11:45:51;;;;;;;4.78;1.30;;;25.00;94.60;;;;;;5046600;28;20178;-82
2022/05/17 11:48:44;;;;;;;7.07;1.70;;;25.30;95.20;;;;;;5037123;28;20037;-82
2022/05/17 11:51:10;;;;;;;6.30;1.77;;;25.60;93.60;;;;;;5065771;28;20046;-83
2022/05/17 11:53:48;;;;;;;5.97;1.75;;;25.80;93.90;;;;;;5054510;28;20506;-82
2022/05/17 11:56:26;;;;;;;5.03;1.40;;;26.10;92.50;;;;;;5054277;28;20517;-82
2022/05/17 11:58:57;;;;;;;5.38;1.17;;;26.20;93.70;;;;;;5054579;28;20048;-82
2022/05/17 12:01:29;;;;;;;5.82;1.55;;;26.40;93.50;;;;;;5055940;28;20037;-82
2022/05/17 12:04:01;;;;;;;5.13;1.50;;;26.70;92.80;;;;;;5037663;28;20843;-82
2022/05/17 12:06:56;;;;;;;4.97;1.42;;;27.10;93.00;;;;;;5054468;28;20037;-82
2022/05/17 12:09:29;;;;;;;7.05;1.50;;;27.10;91.70;;;;;;5031680;28;20444;-82
2022/05/17 12:12:30;;;;;;;5.60;1.60;;;27.20;90.60;;;;;;5051895;28;20049;-82
2022/05/17 12:15:23;;;;;;;6.80;1.88;;;27.30;90.10;;;;;;5053336;28;20041;-82
2022/05/17 12:18:13;;;;;;;5.20;1.30;;;27.00;83.10;;;;;;5055114;28;20502;-83
2022/05/17 12:21:10;;;;;;;6.47;1.75;;;27.20;87.60;;;;;;5033338;28;20045;-82
2022/05/17 12:23:44;;;;;;;5.80;1.60;;;26.60;86.40;;;;;;5050721;28;20045;-81
2022/05/17 12:26:49;;;;;;;8.70;1.73;;;26.10;85.70;;;;;;5036228;28;20132;-81
2022/05/17 12:32:00;;;;;;;6.88;1.70;;;25.60;90.20;;;;;;5054029;28;20040;-81
2022/05/17 12:34:26;;;;;;;5.78;1.40;;;25.90;89.10;;;;;;5051524;28;20033;-82
2022/05/17 12:37:10;;;;;;;7.30;1.52;;;26.10;89.90;;;;;;5033257;28;20673;-81
2022/05/17 12:45:12;;;;;;;8.38;1.73;;;26.10;89.80;;;;;;5033859;28;20056;-80
2022/05/17 12:47:46;;;;;;;5.72;1.67;;;26.00;89.70;;;;;;5034537;28;20041;-80
2022/05/17 12:50:16;;;;;;;5.57;1.70;;;26.20;89.70;;;;;;5035057;28;20037;-81
2022/05/17 12:52:43;;;;;;;5.90;1.58;;;26.30;86.50;;;;;;5034470;28;20045;-81
2022/05/17 12:55:20;;;;;;;5.63;1.70;;;26.60;88.60;;;;;;5033458;28;20040;-81
2022/05/17 12:57:47;;;;;;;5.95;1.80;;;27.20;89.10;;;;;;5044028;28;20067;-82
2022/05/17 13:00:24;;;;;;;5.78;1.40;;;27.60;87.90;;;;;;5049233;28;20045;-81
2022/05/17 13:02:55;;;;;;;5.10;1.60;;;28.10;86.40;;;;;;5032739;28;20033;-81
2022/05/17 13:05:26;;;;;;;5.30;1.50;;;27.80;85.60;;;;;;5040511;28;20120;-81
2022/05/17 13:08:11;;;;;;;6.88;1.92;;;27.70;85.10;;;;;;5036815;28;20041;-81
2022/05/17 13:10:40;;;;;;;6.07;1.67;;;27.10;83.00;;;;;;5053614;28;20099;-80
2022/05/17 13:13:13;;;;;;;7.47;1.92;;;27.20;84.90;;;;;;5053101;28;20036;-81
2022/05/17 13:15:38;;;;;;;4.90;1.55;;;27.20;83.00;;;;;;5052344;28;20121;-81
2022/05/17 13:18:04;;;;;;;5.10;1.60;;;27.60;85.00;;;;;;5053467;28;20510;-81
2022/05/17 13:20:32;;;;;;;4.70;1.40;;;27.80;86.10;;;;;;5053392;28;20051;-82
2022/05/17 13:22:57;;;;;;;6.65;1.73;;;28.30;86.50;;;;;;5053561;28;20043;-81